Time;durP1;ratioP1;P1;durP2;ratioP2;P2;SDS_P1;SDS_P2;PMS_P1;PMS_P2;Temp;Humidity;BMP_temperature;BMP_pressure;BME280_temperature;BME280_humidity;BME280_pressure;Samples;Min_cycle;Max_cycle;Signal;HPM_P1;HPM_P2
2022/11/02 00:00:29;;;;;;;20.27;9.13;;;;;;;12.15;61.26;99952.38;5033898;28;20483;-70
2022/11/02 00:02:54;;;;;;;20.70;10.10;;;;;;;12.12;61.33;99953.03;5050639;28;20095;-70
2022/11/02 00:05:23;;;;;;;25.30;10.55;;;;;;;12.04;61.41;99948.28;5050319;28;20500;-70
2022/11/02 00:07:53;;;;;;;19.85;10.82;;;;;;;12.15;60.86;99946.75;5033958;28;20043;-69
2022/11/02 00:10:20;;;;;;;19.35;9.50;;;;;;;12.11;60.47;99950.56;5051162;28;20106;-70
2022/11/02 00:12:46;;;;;;;21.13;9.98;;;;;;;11.88;61.04;99948.78;5049827;28;20033;-69
2022/11/02 00:15:12;;;;;;;22.70;10.63;;;;;;;11.83;61.54;99951.75;5051465;28;20565;-70
2022/11/02 00:17:41;;;;;;;25.20;11.48;;;;;;;11.57;62.23;99960.19;5051096;28;20021;-70
2022/11/02 00:20:08;;;;;;;21.05;10.02;;;;;;;11.56;61.53;99959.34;5033618;28;20056;-70
2022/11/02 00:22:34;;;;;;;25.00;11.55;;;;;;;11.45;61.43;99950.47;5032625;28;20032;-70
2022/11/02 00:25:05;;;;;;;21.67;10.18;;;;;;;11.34;62.66;99940.72;5051716;28;20377;-70
2022/11/02 00:27:31;;;;;;;15.25;10.43;;;;;;;11.42;62.24;99937.13;5033324;28;20019;-71
2022/11/02 00:29:58;;;;;;;21.05;10.57;;;;;;;11.38;62.59;99941.72;5013734;28;20029;-70
2022/11/02 00:32:25;;;;;;;23.38;13.00;;;;;;;11.47;62.40;99941.72;5030341;28;20499;-70
2022/11/02 00:34:50;;;;;;;21.23;12.65;;;;;;;11.22;63.15;99935.75;5051294;28;20025;-70
2022/11/02 00:37:16;;;;;;;25.38;12.93;;;;;;;11.15;62.29;99936.25;5050818;28;20025;-70
2022/11/02 00:39:41;;;;;;;30.65;12.07;;;;;;;11.23;61.80;99934.63;5051174;28;20036;-70
2022/11/02 00:42:07;;;;;;;20.38;11.80;;;;;;;11.30;61.88;99939.75;5049771;28;20036;-70
2022/11/02 00:44:32;;;;;;;21.15;11.88;;;;;;;11.37;61.42;99940.06;5049531;28;20020;-70
2022/11/02 00:46:57;;;;;;;17.98;11.43;;;;;;;11.43;61.75;99933.16;5033143;28;20025;-69
2022/11/02 00:49:23;;;;;;;24.38;13.18;;;;;;;11.31;61.95;99931.00;5050934;28;20059;-70
2022/11/02 00:51:48;;;;;;;25.33;12.52;;;;;;;11.24;62.26;99939.91;5018731;28;20091;-70
2022/11/02 00:54:14;;;;;;;19.90;10.38;;;;;;;11.25;62.32;99926.72;5013462;28;20022;-70
2022/11/02 00:56:39;;;;;;;20.83;11.85;;;;;;;11.54;61.57;99927.22;5031114;28;20025;-70
2022/11/02 00:59:05;;;;;;;22.70;12.10;;;;;;;11.58;60.98;99929.00;5043096;28;20036;-70
2022/11/02 01:01:30;;;;;;;26.40;11.43;;;;;;;11.50;60.98;99927.88;5049832;28;20029;-70
2022/11/02 01:03:56;;;;;;;27.88;13.07;;;;;;;11.51;61.44;99928.72;5050052;28;20082;-69
2022/11/02 01:06:22;;;;;;;23.55;11.65;;;;;;;11.42;61.16;99927.88;5032936;28;20029;-70
2022/11/02 01:08:47;;;;;;;28.63;12.40;;;;;;;11.77;60.95;99931.50;5050575;28;20016;-69
2022/11/02 01:11:16;;;;;;;25.77;13.70;;;;;;;11.89;59.72;99921.59;5030764;28;20063;-69
2022/11/02 01:13:42;;;;;;;24.85;12.65;;;;;;;11.79;60.28;99919.94;5032930;28;20037;-70
2022/11/02 01:16:08;;;;;;;30.02;12.23;;;;;;;11.80;60.14;99924.38;5050779;28;20488;-70
2022/11/02 01:18:34;;;;;;;27.65;12.65;;;;;;;11.91;60.03;99927.66;5050521;28;20502;-70
2022/11/02 01:20:59;;;;;;;26.27;13.32;;;;;;;11.92;59.74;99906.91;5049711;28;20053;-70
2022/11/02 01:23:25;;;;;;;26.77;12.77;;;;;;;11.93;60.32;99911.34;5032880;28;20036;-70
2022/11/02 01:25:51;;;;;;;24.10;14.05;;;;;;;11.96;59.77;99912.66;5050706;28;20028;-69
2022/11/02 01:28:16;;;;;;;23.45;12.32;;;;;;;11.89;60.12;99922.38;5050462;28;20492;-70
2022/11/02 01:30:42;;;;;;;21.17;12.65;;;;;;;11.87;60.22;99902.28;5049709;28;20082;-70
2022/11/02 01:33:08;;;;;;;30.35;17.35;;;;;;;11.84;60.11;99907.72;5050423;28;20099;-70
2022/11/02 01:35:35;;;;;;;26.13;15.07;;;;;;;12.03;59.79;99904.56;5048910;28;20064;-70
2022/11/02 01:38:02;;;;;;;30.30;15.10;;;;;;;12.03;59.41;99899.81;5050311;28;20041;-69
2022/11/02 01:40:36;;;;;;;40.15;19.05;;;;;;;12.10;59.10;99898.44;5049748;28;20056;-70
2022/11/02 01:43:18;;;;;;;19.70;13.85;;;;;;;11.96;59.16;99898.66;5032555;28;20021;-70
2022/11/02 01:45:45;;;;;;;24.95;13.07;;;;;;;11.84;59.82;99894.56;5050501;28;20463;-69
2022/11/02 01:48:11;;;;;;;27.77;13.15;;;;;;;11.60;60.27;99895.06;5050169;28;20025;-70
2022/11/02 01:50:36;;;;;;;24.15;13.23;;;;;;;11.75;60.00;99904.94;5049379;28;20131;-71
2022/11/02 01:53:02;;;;;;;36.45;13.65;;;;;;;11.57;59.89;99893.75;5050332;28;20033;-70
2022/11/02 01:55:31;;;;;;;37.95;13.70;;;;;;;11.75;59.78;99899.34;5052908;28;20025;-69
2022/11/02 01:58:00;;;;;;;24.67;12.40;;;;;;;11.58;59.63;99901.00;5035951;28;20038;-70
2022/11/02 02:00:26;;;;;;;32.50;13.73;;;;;;;11.50;59.50;99894.25;5043498;28;20051;-69
2022/11/02 02:03:16;;;;;;;26.60;11.38;;;;;;;11.59;60.01;99899.88;5054071;28;20032;-70
2022/11/02 02:06:08;;;;;;;26.88;12.65;;;;;;;11.58;59.89;99903.78;5052166;28;20054;-69
2022/11/02 02:08:37;;;;;;;23.05;11.27;;;;;;;11.57;60.50;99907.75;5053660;28;20379;-70
2022/11/02 02:11:23;;;;;;;21.85;11.38;;;;;;;11.59;59.87;99905.47;5034273;28;20040;-70
2022/11/02 02:13:48;;;;;;;19.70;11.38;;;;;;;11.59;59.71;99908.28;5053891;28;20458;-70
2022/11/02 02:16:20;;;;;;;30.17;12.80;;;;;;;11.57;59.51;99904.97;5053918;28;20113;-70
2022/11/02 02:18:52;;;;;;;23.35;11.38;;;;;;;11.58;59.25;99906.59;5053303;28;20411;-70
2022/11/02 02:21:27;;;;;;;24.30;11.80;;;;;;;11.63;58.67;99905.59;5052319;28;20096;-70
2022/11/02 02:24:20;;;;;;;21.77;11.05;;;;;;;11.66;58.88;99907.78;5033809;28;20025;-70
2022/11/02 02:27:11;;;;;;;17.40;11.45;;;;;;;11.50;59.22;99908.25;5015936;28;20128;-70
2022/11/02 02:30:09;;;;;;;23.85;11.48;;;;;;;11.44;59.20;99906.78;5045521;28;20032;-70
2022/11/02 02:32:55;;;;;;;24.65;10.95;;;;;;;11.42;59.21;99905.47;5035273;28;20356;-70
2022/11/02 02:35:40;;;;;;;22.70;11.00;;;;;;;11.40;59.10;99910.59;5053549;28;20464;-70
2022/11/02 02:38:14;;;;;;;25.15;11.95;;;;;;;11.45;59.83;99907.59;5052112;28;20041;-70
2022/11/02 02:41:02;;;;;;;18.55;9.70;;;;;;;11.47;59.51;99902.53;5052766;28;20562;-70
2022/11/02 02:43:36;;;;;;;16.77;10.13;;;;;;;11.44;59.45;99900.34;5052899;28;20031;-69
2022/11/02 02:46:33;;;;;;;24.52;11.93;;;;;;;11.37;60.15;99898.06;5035705;28;20059;-69
2022/11/02 02:49:00;;;;;;;24.40;10.65;;;;;;;11.43;59.61;99904.31;5052007;28;20024;-69
2022/11/02 02:51:29;;;;;;;17.45;8.95;;;;;;;11.34;60.32;99898.72;5035189;28;20025;-70
2022/11/02 02:54:01;;;;;;;26.77;10.27;;;;;;;11.45;59.99;99904.81;5053032;28;20021;-70
2022/11/02 02:56:39;;;;;;;22.70;10.30;;;;;;;11.34;60.29;99898.72;5053138;28;20090;-70
2022/11/02 02:59:07;;;;;;;20.55;9.88;;;;;;;11.31;60.36;99897.41;5051511;28;20017;-69
2022/11/02 03:01:34;;;;;;;18.30;9.43;;;;;;;11.38;60.55;99897.72;5034192;28;20025;-70
2022/11/02 03:03:59;;;;;;;23.98;10.18;;;;;;;11.15;60.60;99899.06;5034896;28;20052;-69
2022/11/02 03:06:34;;;;;;;17.35;9.80;;;;;;;11.00;61.72;99886.34;5034037;28;20030;-70
2022/11/02 03:09:12;;;;;;;20.13;10.25;;;;;;;11.13;60.99;99892.97;5033632;28;20027;-70
2022/11/02 03:12:13;;;;;;;25.98;9.82;;;;;;;11.36;60.98;99893.59;5051377;28;20048;-70
2022/11/02 03:14:49;;;;;;;16.83;8.60;;;;;;;11.42;60.68;99897.06;5009801;28;20099;-70
2022/11/02 03:17:26;;;;;;;15.52;9.80;;;;;;;11.24;60.79;99897.09;5052605;28;20037;-70
2022/11/02 03:20:20;;;;;;;29.08;10.02;;;;;;;11.19;60.37;99906.47;5051539;28;20080;-70
2022/11/02 03:23:36;;;;;;;28.73;10.57;;;;;;;11.27;60.53;99899.22;5010082;28;20045;-71
2022/11/02 03:26:11;;;;;;;21.50;10.27;;;;;;;11.12;60.72;99899.72;4952344;29;20135;-70
2022/11/02 03:28:58;;;;;;;19.67;11.30;;;;;;;10.92;61.41;99902.81;5036459;28;20037;-70
2022/11/02 03:31:36;;;;;;;31.52;9.68;;;;;;;10.92;61.21;99902.00;5032494;28;20082;-70
2022/11/02 03:34:30;;;;;;;18.02;10.10;;;;;;;11.00;60.95;99891.94;5032451;28;20030;-70
2022/11/02 03:37:02;;;;;;;25.52;11.88;;;;;;;11.00;61.14;99895.59;5018535;28;20136;-69
2022/11/02 03:39:41;;;;;;;21.38;10.45;;;;;;;11.06;60.43;99897.06;5017950;28;20044;-69
2022/11/02 03:42:11;;;;;;;22.55;11.55;;;;;;;10.93;60.19;99896.06;5014551;28;20519;-70
2022/11/02 03:44:38;;;;;;;24.13;14.13;;;;;;;10.82;60.79;99903.94;5032058;28;20416;-69
2022/11/02 03:47:09;;;;;;;26.52;15.35;;;;;;;10.31;62.04;99900.63;5014461;28;20057;-69
2022/11/02 03:49:38;;;;;;;30.23;12.77;;;;;;;10.16;62.84;99909.44;5048323;28;20075;-69
2022/11/02 03:52:09;;;;;;;29.45;12.98;;;;;;;10.19;63.25;99906.84;5052082;28;20025;-70
2022/11/02 03:54:40;;;;;;;27.38;13.07;;;;;;;10.25;63.26;99907.53;5034100;28;20063;-70
2022/11/02 03:57:09;;;;;;;19.33;9.95;;;;;;;10.27;61.95;99910.00;5033767;28;20033;-69
2022/11/02 03:59:34;;;;;;;27.70;11.05;;;;;;;10.24;62.01;99901.09;5020990;28;20025;-70
2022/11/02 04:02:01;;;;;;;26.02;11.70;;;;;;;10.29;62.21;99902.13;5051799;28;20029;-70
2022/11/02 04:04:26;;;;;;;25.55;12.82;;;;;;;10.37;61.57;99895.72;5050343;28;20028;-69
2022/11/02 04:06:52;;;;;;;27.55;15.20;;;;;;;10.36;61.91;99894.91;5050201;28;20036;-70
2022/11/02 04:09:18;;;;;;;45.28;21.90;;;;;;;10.55;61.18;99901.41;5050686;28;20044;-70
2022/11/02 04:14:36;;;;;;;35.45;18.90;;;;;;;10.34;61.73;99904.75;5050947;28;20470;-70
2022/11/02 04:19:54;;;;;;;36.45;18.13;;;;;;;10.45;61.78;99894.97;5041568;28;20040;-69
2022/11/02 04:25:14;;;;;;;33.55;17.35;;;;;;;10.50;61.29;99894.00;5052406;28;20441;-69
2022/11/02 04:27:41;;;;;;;45.92;17.33;;;;;;;10.46;61.54;99893.81;5033169;28;20039;-69
2022/11/02 04:30:07;;;;;;;28.45;12.90;;;;;;;10.46;61.56;99885.41;5033629;28;20033;-70
2022/11/02 04:35:24;;;;;;;29.25;13.55;;;;;;;10.01;63.67;99891.94;5052083;28;20035;-70
2022/11/02 04:40:34;;;;;;;28.00;12.23;;;;;;;9.84;64.54;99889.88;5050181;28;20048;-69
2022/11/02 04:42:59;;;;;;;31.67;14.05;;;;;;;10.18;64.02;99891.22;5051758;28;20025;-70
2022/11/02 04:45:24;;;;;;;23.23;12.50;;;;;;;10.11;63.75;99893.63;5051833;28;20021;-70
2022/11/02 04:47:50;;;;;;;27.30;13.88;;;;;;;10.18;63.82;99882.81;5048092;28;20178;-69
2022/11/02 04:50:15;;;;;;;29.17;13.38;;;;;;;10.34;62.87;99886.03;5033245;28;20044;-70
2022/11/02 04:52:41;;;;;;;28.92;13.88;;;;;;;10.28;62.69;99904.06;5051660;28;20480;-70
2022/11/02 04:55:07;;;;;;;37.58;13.10;;;;;;;10.03;62.67;99894.44;5051447;28;20490;-70
2022/11/02 04:57:32;;;;;;;26.70;12.70;;;;;;;9.97;64.13;99885.38;5050543;28;20491;-70
2022/11/02 04:59:58;;;;;;;24.80;13.63;;;;;;;10.03;62.59;99900.03;5050656;28;20057;-70
2022/11/02 05:02:24;;;;;;;27.92;15.38;;;;;;;10.03;63.17;99894.44;5050642;28;20032;-70
2022/11/02 05:04:49;;;;;;;32.47;13.50;;;;;;;9.96;61.85;99904.09;5048736;28;20392;-67
2022/11/02 05:07:15;;;;;;;26.73;13.25;;;;;;;10.05;62.05;99895.75;5049791;28;20029;-67
2022/11/02 05:09:43;;;;;;;38.67;12.57;;;;;;;10.05;62.59;99898.53;5050746;28;20027;-67
2022/11/02 05:12:08;;;;;;;56.92;13.93;;;;;;;9.87;63.08;99899.59;5033038;28;20492;-67
2022/11/02 05:14:34;;;;;;;56.50;14.55;;;;;;;10.15;62.27;99891.03;5032776;28;20028;-67
2022/11/02 05:17:00;;;;;;;33.80;13.43;;;;;;;9.98;61.87;99893.41;5031994;28;20052;-68
2022/11/02 05:19:25;;;;;;;48.42;14.70;;;;;;;10.10;61.39;99900.38;5050613;28;20017;-69
2022/11/02 05:21:51;;;;;;;49.28;13.88;;;;;;;10.09;61.76;99896.78;5050798;28;20025;-68
2022/11/02 05:24:16;;;;;;;70.05;14.77;;;;;;;9.97;62.42;99888.97;5050723;28;20403;-69
2022/11/02 05:26:42;;;;;;;41.42;16.98;;;;;;;10.22;61.83;99891.41;5030906;28;20024;-68
2022/11/02 05:29:08;;;;;;;52.05;18.60;;;;;;;10.33;62.04;99897.50;5047415;28;20048;-68
2022/11/02 05:31:33;;;;;;;37.45;16.63;;;;;;;10.30;62.40;99898.16;5035986;28;20021;-68
2022/11/02 05:33:58;;;;;;;52.53;16.67;;;;;;;10.32;62.05;99895.88;5054553;28;20029;-67
2022/11/02 05:36:24;;;;;;;39.05;14.23;;;;;;;10.31;62.81;99902.59;5052634;28;20036;-68
2022/11/02 05:38:53;;;;;;;50.45;16.05;;;;;;;10.28;62.90;99904.06;5053360;28;20024;-67
2022/11/02 05:41:19;;;;;;;70.17;17.07;;;;;;;10.32;62.05;99896.72;5054299;28;20514;-68
2022/11/02 05:43:45;;;;;;;25.38;13.00;;;;;;;10.49;62.13;99900.72;5036475;28;20104;-68
2022/11/02 05:46:13;;;;;;;38.08;15.60;;;;;;;10.56;62.09;99897.47;5052208;28;20024;-69
2022/11/02 05:48:39;;;;;;;50.38;16.50;;;;;;;10.47;62.99;99903.84;5049759;28;20036;-68
2022/11/02 05:51:05;;;;;;;35.80;16.60;;;;;;;10.23;63.24;99909.81;5053044;28;20017;-69
2022/11/02 05:53:32;;;;;;;38.05;15.32;;;;;;;10.13;63.97;99905.31;5035393;28;20029;-68
2022/11/02 05:56:00;;;;;;;32.88;14.63;;;;;;;10.36;62.94;99910.84;5050896;28;20021;-68
2022/11/02 05:58:26;;;;;;;44.45;15.05;;;;;;;10.71;62.50;99901.78;5052268;28;20040;-69
2022/11/02 06:00:52;;;;;;;50.08;18.83;;;;;;;10.89;61.49;99908.25;5051114;28;20024;-68
2022/11/02 06:03:18;;;;;;;43.55;16.40;;;;;;;10.77;61.94;99912.50;5033751;28;20025;-69
2022/11/02 06:05:44;;;;;;;49.22;17.30;;;;;;;11.02;61.85;99907.28;5027676;28;20075;-69
2022/11/02 06:08:10;;;;;;;42.15;15.70;;;;;;;11.25;60.68;99907.13;5032178;28;20057;-69
2022/11/02 06:10:35;;;;;;;36.05;13.82;;;;;;;11.40;60.13;99910.59;5019980;28;20038;-69
2022/11/02 06:13:02;;;;;;;34.53;11.30;;;;;;;11.48;59.58;99909.75;5029707;28;20534;-69
2022/11/02 06:15:30;;;;;;;35.17;12.00;;;;;;;11.56;59.40;99908.09;5029213;28;20029;-69
2022/11/02 06:17:55;;;;;;;26.55;11.93;;;;;;;11.74;59.39;99918.13;5033550;28;20035;-69
2022/11/02 06:20:22;;;;;;;34.40;11.57;;;;;;;11.90;59.41;99907.22;5029062;28;20403;-69
2022/11/02 06:22:47;;;;;;;22.23;11.52;;;;;;;12.02;59.56;99908.53;5026091;28;20021;-69
2022/11/02 06:25:13;;;;;;;24.23;11.05;;;;;;;12.30;58.71;99902.50;5031392;28;20083;-69
2022/11/02 06:27:40;;;;;;;28.13;12.80;;;;;;;12.17;59.16;99907.19;5028506;28;20021;-68
2022/11/02 06:30:07;;;;;;;30.02;11.40;;;;;;;12.14;60.54;99907.84;5031453;28;20021;-70
2022/11/02 06:32:32;;;;;;;36.33;14.00;;;;;;;12.42;59.51;99910.22;5029959;28;20053;-69
2022/11/02 06:34:58;;;;;;;36.45;13.07;;;;;;;12.39;60.11;99906.09;5030914;28;20139;-70
2022/11/02 06:37:23;;;;;;;28.13;11.80;;;;;;;12.53;59.84;99905.03;5031236;28;20412;-72
2022/11/02 06:39:49;;;;;;;39.15;13.35;;;;;;;12.46;60.42;99900.78;5032032;28;20373;-71
2022/11/02 06:42:14;;;;;;;39.45;13.18;;;;;;;12.59;59.67;99909.31;5029261;28;20115;-73
2022/11/02 06:44:40;;;;;;;29.17;13.10;;;;;;;12.70;59.55;99904.97;5031212;28;20554;-76
2022/11/02 06:47:06;;;;;;;33.63;13.75;;;;;;;12.92;59.29;99912.25;5033654;28;20491;-70
2022/11/02 06:49:31;;;;;;;49.33;13.77;;;;;;;13.15;58.42;99908.28;5028125;28;20018;-71
2022/11/02 06:51:57;;;;;;;27.98;11.95;;;;;;;13.32;57.67;99910.13;5025980;28;20475;-71
2022/11/02 06:54:22;;;;;;;39.20;12.63;;;;;;;13.44;57.14;99912.25;5030891;28;20095;-70
2022/11/02 06:56:48;;;;;;;22.60;10.35;;;;;;;13.53;56.21;99913.00;5029101;28;20021;-71
2022/11/02 06:59:13;;;;;;;34.50;11.95;;;;;;;13.66;55.92;99907.41;5032828;28;20029;-72
2022/11/02 07:01:39;;;;;;;20.50;8.65;;;;;;;13.88;55.30;99912.66;5031906;28;20091;-71
2022/11/02 07:04:04;;;;;;;32.53;10.18;;;;;;;14.18;54.54;99898.41;5029487;28;20025;-72
2022/11/02 07:06:29;;;;;;;34.38;9.73;;;;;;;14.28;53.41;99901.94;5028100;28;20038;-74
2022/11/02 07:08:55;;;;;;;28.13;8.68;;;;;;;14.38;53.17;99895.88;5030584;28;20480;-74
2022/11/02 07:11:20;;;;;;;33.58;8.98;;;;;;;14.56;53.13;99904.91;5030737;28;20037;-73
2022/11/02 07:13:46;;;;;;;18.20;7.13;;;;;;;14.69;53.15;99902.88;5024899;28;20113;-74
2022/11/02 07:16:12;;;;;;;17.30;7.28;;;;;;;14.78;51.84;99899.16;5030482;28;20057;-73
2022/11/02 07:18:37;;;;;;;17.73;8.50;;;;;;;14.83;52.48;99898.91;5031890;28;20026;-73
2022/11/02 07:21:03;;;;;;;35.58;10.20;;;;;;;15.04;51.92;99893.16;5031660;28;20037;-72
2022/11/02 07:23:29;;;;;;;24.90;8.10;;;;;;;15.11;51.30;99892.56;5027957;28;20034;-72
2022/11/02 07:25:54;;;;;;;21.77;7.13;;;;;;;15.17;50.83;99899.56;5029149;28;20099;-73
2022/11/02 07:28:20;;;;;;;25.17;8.00;;;;;;;15.33;50.94;99891.19;5027706;28;20036;-73
2022/11/02 07:30:46;;;;;;;22.08;8.05;;;;;;;15.44;50.25;99885.88;5027694;28;20064;-72
2022/11/02 07:33:11;;;;;;;28.10;7.95;;;;;;;15.58;49.33;99885.47;5032676;28;20025;-70
2022/11/02 07:35:37;;;;;;;23.88;8.10;;;;;;;15.76;49.31;99887.97;5030856;28;20420;-68
2022/11/02 07:38:04;;;;;;;16.38;8.80;;;;;;;15.84;49.11;99876.53;5026173;28;20028;-69
2022/11/02 07:40:31;;;;;;;25.88;10.00;;;;;;;15.97;47.90;99882.13;5028197;28;20026;-69
2022/11/02 07:42:58;;;;;;;29.60;9.98;;;;;;;16.20;47.85;99873.06;5035530;28;20045;-69
2022/11/02 07:45:23;;;;;;;25.05;11.20;;;;;;;16.32;47.48;99863.66;5021299;28;20029;-71
2022/11/02 07:47:50;;;;;;;24.60;8.38;;;;;;;16.55;46.85;99863.84;5028136;28;20048;-71
2022/11/02 07:50:21;;;;;;;23.38;8.00;;;;;;;16.85;46.29;99852.00;5025549;28;20040;-71
2022/11/02 07:52:55;;;;;;;22.42;8.02;;;;;;;17.05;45.78;99857.75;5031963;28;20029;-71
2022/11/02 07:55:26;;;;;;;18.40;7.35;;;;;;;17.13;45.72;99856.69;5026659;28;20044;-70
2022/11/02 07:57:57;;;;;;;28.23;8.88;;;;;;;17.40;45.52;99854.03;5027221;28;20025;-70
2022/11/02 08:00:24;;;;;;;28.40;7.40;;;;;;;17.46;44.79;99844.06;5024137;28;20044;-70
2022/11/02 08:02:54;;;;;;;28.48;8.63;;;;;;;17.66;44.84;99844.03;5018873;28;20030;-70
2022/11/02 08:05:20;;;;;;;27.67;8.88;;;;;;;17.91;43.74;99850.16;5026185;28;20471;-70
2022/11/02 08:07:45;;;;;;;21.77;8.70;;;;;;;18.20;43.15;99847.88;5031689;28;20045;-72
2022/11/02 08:10:10;;;;;;;20.80;8.00;;;;;;;18.43;42.80;99843.38;5034624;28;20515;-73
2022/11/02 08:12:36;;;;;;;32.25;9.63;;;;;;;18.55;42.66;99831.84;5036010;28;20511;-72
2022/11/02 08:15:03;;;;;;;25.30;9.45;;;;;;;18.83;42.41;99821.31;5034300;28;20404;-71
2022/11/02 08:17:28;;;;;;;29.35;8.93;;;;;;;19.07;42.20;99814.41;5052104;28;20028;-74
2022/11/02 08:19:54;;;;;;;37.00;9.48;;;;;;;19.28;41.20;99816.69;5032827;28;20017;-75
2022/11/02 08:22:19;;;;;;;28.48;8.45;;;;;;;19.53;40.83;99804.00;5051048;28;20098;-71
2022/11/02 08:24:45;;;;;;;14.43;5.40;;;;;;;19.76;39.55;99807.50;5051466;28;20029;-71
2022/11/02 08:27:10;;;;;;;25.02;10.77;;;;;;;20.00;38.77;99810.19;5033322;28;20025;-71
2022/11/02 08:29:36;;;;;;;22.30;7.50;;;;;;;20.30;37.79;99800.69;5050167;28;20393;-71
2022/11/02 08:32:02;;;;;;;12.70;4.40;;;;;;;20.56;37.51;99791.16;5051231;28;20051;-71
2022/11/02 08:34:28;;;;;;;21.42;6.43;;;;;;;20.79;35.32;99792.91;5051390;28;20407;-71
2022/11/02 08:36:53;;;;;;;11.80;6.47;;;;;;;20.99;34.43;99787.75;5051287;28;20020;-71
2022/11/02 08:39:19;;;;;;;27.23;8.77;;;;;;;21.16;34.42;99788.22;5031748;28;20238;-71
2022/11/02 08:41:44;;;;;;;22.38;8.48;;;;;;;21.21;33.34;99782.16;5049551;28;20043;-71
2022/11/02 08:44:10;;;;;;;20.73;6.40;;;;;;;21.49;32.86;99785.50;5050171;28;20028;-70
2022/11/02 08:46:35;;;;;;;16.35;5.28;;;;;;;21.55;32.90;99776.19;5050686;28;20044;-71
2022/11/02 08:49:01;;;;;;;13.52;5.43;;;;;;;21.63;32.81;99779.84;5049122;28;20017;-71
2022/11/02 08:51:26;;;;;;;15.93;5.85;;;;;;;21.73;32.92;99790.47;5050289;28;20029;-71
2022/11/02 08:53:52;;;;;;;16.02;6.32;;;;;;;21.79;32.79;99784.38;5050272;28;20024;-71
2022/11/02 08:56:17;;;;;;;28.85;10.55;;;;;;;21.84;32.47;99772.56;5050619;28;20033;-71
2022/11/02 08:58:43;;;;;;;25.48;9.50;;;;;;;22.00;32.87;99773.00;5049830;28;20020;-71
2022/11/02 09:01:08;;;;;;;27.63;9.95;;;;;;;22.20;33.09;99766.09;5050285;28;20029;-74
2022/11/02 09:03:34;;;;;;;22.25;5.13;;;;;;;22.28;31.80;99764.88;5049674;28;20025;-71
2022/11/02 09:06:01;;;;;;;21.33;5.80;;;;;;;22.32;31.65;99759.97;5032760;28;20041;-71
2022/11/02 09:08:28;;;;;;;21.13;7.28;;;;;;;22.51;30.96;99761.59;5049460;28;20450;-71
2022/11/02 09:10:58;;;;;;;20.13;6.47;;;;;;;22.60;31.16;99754.66;5036181;28;20089;-71
2022/11/02 09:13:24;;;;;;;26.67;10.18;;;;;;;22.85;31.02;99746.84;5029515;28;20123;-72
2022/11/02 09:15:54;;;;;;;14.00;6.53;;;;;;;23.00;30.56;99746.78;5030212;28;20556;-71
2022/11/02 09:18:20;;;;;;;25.00;9.27;;;;;;;23.26;30.60;99750.31;5028573;28;20041;-71
2022/11/02 09:20:47;;;;;;;21.67;6.90;;;;;;;23.33;30.28;99738.09;5029435;28;20425;-71
2022/11/02 09:23:13;;;;;;;23.42;7.53;;;;;;;23.44;29.21;99738.03;5027187;28;20462;-71
2022/11/02 09:25:39;;;;;;;27.27;8.70;;;;;;;23.46;29.88;99739.22;5029620;28;20544;-71
2022/11/02 09:28:05;;;;;;;26.02;9.70;;;;;;;23.54;29.64;99732.25;5029901;28;20018;-71
2022/11/02 09:30:30;;;;;;;27.30;7.57;;;;;;;23.75;29.04;99723.94;5030543;28;20040;-71
2022/11/02 09:33:04;;;;;;;33.65;9.77;;;;;;;23.95;28.52;99719.28;5027881;28;20021;-69
2022/11/02 09:35:36;;;;;;;32.20;6.72;;;;;;;24.13;28.20;99712.63;5028545;28;20040;-72
2022/11/02 09:38:01;;;;;;;34.70;10.15;;;;;;;24.25;28.86;99711.31;5028119;28;20040;-71
2022/11/02 09:40:30;;;;;;;17.33;4.85;;;;;;;24.44;28.00;99709.88;5030392;28;20038;-71
2022/11/02 09:43:18;;;;;;;37.15;8.75;;;;;;;24.68;27.56;99701.44;5026732;28;20539;-72
2022/11/02 09:45:58;;;;;;;30.48;7.22;;;;;;;24.74;27.43;99705.47;5026586;28;20033;-71
2022/11/02 09:48:41;;;;;;;23.73;5.55;;;;;;;24.88;26.52;99697.97;5026176;28;20493;-75
2022/11/02 09:51:10;;;;;;;39.13;6.97;;;;;;;25.01;25.27;99696.16;5026245;28;20025;-71
2022/11/02 09:53:40;;;;;;;27.27;10.50;;;;;;;24.94;26.03;99687.66;5027955;28;20421;-71
2022/11/02 09:56:07;;;;;;;15.88;5.32;;;;;;;25.07;26.18;99694.44;5028634;28;20056;-70
2022/11/02 09:58:37;;;;;;;37.55;8.80;;;;;;;25.29;25.25;99690.47;5028640;28;20017;-69
2022/11/02 10:01:21;;;;;;;27.83;7.47;;;;;;;25.43;24.95;99686.56;5027325;28;20514;-69
2022/11/02 10:03:49;;;;;;;32.20;7.38;;;;;;;25.45;24.41;99689.81;5026487;28;20526;-70
2022/11/02 10:06:20;;;;;;;13.70;4.53;;;;;;;25.51;24.03;99688.13;5022549;28;20036;-70
2022/11/02 10:08:45;;;;;;;21.63;4.50;;;;;;;25.67;23.86;99673.13;5024447;28;20025;-70
2022/11/02 10:11:38;;;;;;;17.80;4.70;;;;;;;25.72;23.38;99680.44;5036596;28;20120;-70
2022/11/02 10:14:43;;;;;;;21.73;4.85;;;;;;;25.89;23.75;99682.16;5046885;28;20151;-71
2022/11/02 10:17:15;;;;;;;16.13;4.43;;;;;;;25.99;23.64;99670.97;5016188;28;20060;-70
2022/11/02 10:19:48;;;;;;;22.52;4.70;;;;;;;26.01;23.16;99663.56;5052083;28;20016;-69
2022/11/02 10:22:14;;;;;;;25.30;5.72;;;;;;;26.03;23.57;99663.09;5029679;28;20148;-70
2022/11/02 10:24:43;;;;;;;20.17;5.65;;;;;;;26.06;23.27;99656.47;5051132;28;20035;-69
2022/11/02 10:27:25;;;;;;;20.33;4.35;;;;;;;26.38;23.59;99657.97;5045300;28;20123;-70
2022/11/02 10:30:03;;;;;;;21.13;5.20;;;;;;;26.51;23.34;99645.84;5048934;28;20009;-70
2022/11/02 10:32:34;;;;;;;18.30;5.90;;;;;;;26.45;23.17;99645.53;5051533;28;20017;-74
2022/11/02 10:35:06;;;;;;;13.20;3.83;;;;;;;26.45;23.18;99643.50;5048640;28;20078;-73
2022/11/02 10:37:56;;;;;;;11.90;3.90;;;;;;;26.53;23.30;99635.56;5028239;28;20033;-74
2022/11/02 10:40:24;;;;;;;;;;;;;;;26.60;23.21;99634.59;5052397;28;20029;-72
2022/11/02 10:42:59;;;;;;;15.90;3.95;;;;;;;26.80;23.10;99625.16;5053761;28;19909;-71
2022/11/02 10:45:46;;;;;;;24.70;3.70;;;;;;;26.84;22.90;99617.28;5047506;28;20470;-69
2022/11/02 10:48:27;;;;;;;14.80;4.03;;;;;;;26.98;22.91;99616.19;5050035;28;20044;-68
2022/11/02 10:51:11;;;;;;;14.93;4.65;;;;;;;27.04;22.76;99612.34;5046004;28;20106;-69
2022/11/02 10:53:49;;;;;;;16.30;4.32;;;;;;;27.14;22.21;99606.78;5033800;28;20553;-69
2022/11/02 10:56:22;;;;;;;17.48;4.13;;;;;;;27.27;22.38;99590.47;5050933;28;20025;-69
2022/11/02 10:59:14;;;;;;;16.60;4.32;;;;;;;27.44;22.94;99610.56;5032365;28;20020;-70
2022/11/02 11:01:55;;;;;;;16.98;5.25;;;;;;;27.43;22.41;99592.53;5023090;28;20031;-68
2022/11/02 11:04:28;;;;;;;17.50;4.20;;;;;;;27.49;22.35;99592.78;5041500;28;20032;-70
2022/11/02 11:06:55;;;;;;;17.95;4.15;;;;;;;27.56;22.43;99595.53;5049958;28;20043;-69
2022/11/02 11:09:22;;;;;;;18.80;4.07;;;;;;;27.64;21.99;99595.34;5049563;28;20595;-69
2022/11/02 11:12:00;;;;;;;14.93;4.60;;;;;;;27.64;21.67;99586.75;5030960;28;20056;-68
2022/11/02 11:14:28;;;;;;;20.13;4.97;;;;;;;27.67;21.24;99578.00;5043528;28;20255;-70
2022/11/02 11:16:56;;;;;;;15.52;4.25;;;;;;;27.75;21.60;99582.31;5045699;28;20492;-70
2022/11/02 11:19:22;;;;;;;24.52;4.78;;;;;;;27.83;21.27;99585.00;5031068;28;20029;-69
2022/11/02 11:21:48;;;;;;;21.15;4.78;;;;;;;27.77;21.79;99581.88;5033023;28;20119;-69
2022/11/02 11:24:23;;;;;;;17.40;4.72;;;;;;;27.91;21.17;99569.16;5032728;28;20143;-69
2022/11/02 11:27:13;;;;;;;17.23;4.45;;;;;;;28.02;20.60;99575.41;5046011;28;20044;-69
2022/11/02 11:29:44;;;;;;;13.07;4.43;;;;;;;28.12;21.08;99566.94;5049089;28;20826;-69
2022/11/02 11:32:27;;;;;;;16.02;4.80;;;;;;;28.12;20.23;99566.94;5050742;28;20032;-68
2022/11/02 11:35:06;;;;;;;22.15;4.43;;;;;;;28.10;20.82;99560.84;5032210;28;20098;-70
2022/11/02 11:37:32;;;;;;;10.63;4.00;;;;;;;28.13;20.22;99565.69;5049794;28;20104;-70
2022/11/02 11:40:01;;;;;;;29.63;7.10;;;;;;;28.21;20.80;99552.75;5031866;28;20111;-71
2022/11/02 11:42:30;;;;;;;20.00;5.03;;;;;;;28.30;19.67;99547.16;5044592;28;20454;-70
2022/11/02 11:45:05;;;;;;;23.27;4.80;;;;;;;28.40;19.83;99547.25;5048156;28;20503;-68
2022/11/02 13:10:15;;;;;;;15.02;3.55;;;;;;;28.78;15.41;99493.91;5095858;27;1327618;-70